createdAt,value
2022-08-12T00:00:33.736Z,22.96
2022-08-12T00:03:37.575Z,22.98
2022-08-12T00:06:42.363Z,22.93
2022-08-12T00:09:46.316Z,22.78
2022-08-12T00:12:53.338Z,22.76
2022-08-12T00:16:00.519Z,22.60
2022-08-12T00:19:04.182Z,22.46
2022-08-12T00:22:08.432Z,22.45
2022-08-12T00:25:20.196Z,22.62
2022-08-12T00:28:43.922Z,22.41
2022-08-12T00:31:47.838Z,22.35
2022-08-12T00:34:52.162Z,22.31
2022-08-12T00:37:55.847Z,22.46
2022-08-12T00:41:02.290Z,22.44
2022-08-12T00:43:48.647Z,22.39
2022-08-12T00:46:50.489Z,22.32
2022-08-12T00:49:36.026Z,22.18
2022-08-12T00:52:22.807Z,22.23
2022-08-12T00:55:08.277Z,22.16
2022-08-12T00:57:54.213Z,22.10
2022-08-12T01:00:42.474Z,22.08
2022-08-12T01:03:48.220Z,22.13
2022-08-12T01:06:53.835Z,22.08
2022-08-12T01:09:59.499Z,21.95
2022-08-12T01:12:45.400Z,21.85
2022-08-12T01:15:31.362Z,21.73
2022-08-12T01:18:22.169Z,21.70
2022-08-12T01:21:29.204Z,21.92
2022-08-12T01:24:43.951Z,22.22
2022-08-12T01:27:30.208Z,22.18
2022-08-12T01:30:16.511Z,21.99
2022-08-12T01:33:06.015Z,21.88
2022-08-12T01:36:08.005Z,22.03
2022-08-12T01:38:57.648Z,22.10
2022-08-12T01:41:53.839Z,22.03
2022-08-12T01:44:39.589Z,21.98
2022-08-12T01:47:30.380Z,21.98
2022-08-12T01:50:20.781Z,21.96
2022-08-12T01:53:12.914Z,22.24
2022-08-12T01:55:59.974Z,22.12
2022-08-12T01:59:05.327Z,21.98
2022-08-12T02:01:56.758Z,22.00
2022-08-12T02:05:20.177Z,21.89
2022-08-12T02:08:36.511Z,21.86
2022-08-12T02:11:29.147Z,21.94
2022-08-12T02:14:51.717Z,21.87
2022-08-12T02:18:17.774Z,21.76
2022-08-12T02:21:24.949Z,21.65
2022-08-12T02:24:15.849Z,21.58
2022-08-12T02:27:02.743Z,21.69
2022-08-12T02:29:49.272Z,21.49
2022-08-12T02:32:38.981Z,21.31
2022-08-12T02:35:28.058Z,21.17
2022-08-12T02:38:17.432Z,21.19
2022-08-12T02:41:04.642Z,21.14
2022-08-12T02:43:59.026Z,21.11
2022-08-12T02:46:49.555Z,21.14
2022-08-12T02:49:39.836Z,20.99
2022-08-12T02:52:27.320Z,21.07
2022-08-12T02:55:28.658Z,21.02
2022-08-12T02:58:20.550Z,21.04
2022-08-12T03:01:24.990Z,20.97
2022-08-12T03:04:20.564Z,20.99
2022-08-12T03:07:55.135Z,20.85
2022-08-12T03:10:37.489Z,21.02
2022-08-12T03:13:26.307Z,21.09
2022-08-12T03:16:11.910Z,21.19
2022-08-12T03:18:58.231Z,21.35
2022-08-12T03:21:55.398Z,21.43
2022-08-12T03:24:51.239Z,21.25
2022-08-12T03:27:40.500Z,21.03
2022-08-12T03:30:34.456Z,21.19
2022-08-12T03:33:21.709Z,20.96
2022-08-12T03:36:09.320Z,20.78
2022-08-12T03:39:19.692Z,20.67
2022-08-12T03:42:12.441Z,20.75
2022-08-12T03:45:16.297Z,20.70
2022-08-12T03:48:23.174Z,20.79
2022-08-12T03:51:27.415Z,20.60
2022-08-12T03:54:31.309Z,20.48
2022-08-12T03:57:35.134Z,20.49
2022-08-12T04:00:24.029Z,20.48
2022-08-12T04:03:30.264Z,20.80
2022-08-12T04:06:16.134Z,20.74
2022-08-12T04:09:23.096Z,20.67
2022-08-12T04:12:40.322Z,20.62
2022-08-12T04:15:28.873Z,20.59
2022-08-12T04:18:18.035Z,20.70
2022-08-12T04:21:03.775Z,20.62
2022-08-12T04:23:49.481Z,20.66
2022-08-12T04:26:39.987Z,20.84
2022-08-12T04:30:31.276Z,21.22
2022-08-12T04:32:32.178Z,21.41
2022-08-12T04:35:17.823Z,21.48
2022-08-12T04:38:05.287Z,21.64
2022-08-12T04:40:51.737Z,21.67
2022-08-12T04:44:00.494Z,21.52
2022-08-12T04:46:43.736Z,21.46
2022-08-12T04:49:32.085Z,21.38
2022-08-12T04:52:18.019Z,21.26
2022-08-12T04:55:03.699Z,21.13
2022-08-12T04:57:49.633Z,21.05
2022-08-12T05:00:38.175Z,21.03
2022-08-12T05:03:26.450Z,20.97
2022-08-12T05:06:17.048Z,21.13
2022-08-12T05:09:13.449Z,21.34
2022-08-12T05:11:58.967Z,21.56
2022-08-12T05:14:44.190Z,21.45
2022-08-12T05:17:29.515Z,21.39
2022-08-12T05:20:16.217Z,21.51
2022-08-12T05:23:12.973Z,21.59
2022-08-12T05:26:00.941Z,21.57
2022-08-12T05:28:46.281Z,21.81
2022-08-12T05:31:47.732Z,21.87
2022-08-12T05:34:34.506Z,21.84
2022-08-12T05:37:23.319Z,21.91
2022-08-12T05:40:11.457Z,21.93
2022-08-12T05:42:56.983Z,21.87
2022-08-12T05:45:45.993Z,21.99
2022-08-12T05:48:32.983Z,22.17
2022-08-12T05:51:18.824Z,22.28
2022-08-12T05:54:04.891Z,22.32
2022-08-12T05:56:51.693Z,22.42
2022-08-12T05:59:38.395Z,22.57
2022-08-12T06:02:23.528Z,22.63
2022-08-12T06:05:10.509Z,22.73
2022-08-12T06:08:02.843Z,22.74
2022-08-12T06:10:50.867Z,22.74
2022-08-12T06:13:53.910Z,22.92
2022-08-12T06:16:39.643Z,23.03
2022-08-12T06:19:25.190Z,22.98
2022-08-12T06:22:30.624Z,23.17
2022-08-12T06:25:22.090Z,23.28
2022-08-12T06:28:17.689Z,23.34
2022-08-12T06:35:25.566Z,23.45
2022-08-12T06:45:01.028Z,23.78
2022-08-12T06:47:47.959Z,23.44
2022-08-12T06:50:38.136Z,23.29
2022-08-12T06:53:26.629Z,23.37
2022-08-12T06:56:12.760Z,23.52
2022-08-12T06:58:58.043Z,23.77
2022-08-12T07:01:51.087Z,23.84
2022-08-12T07:04:39.218Z,24.01
2022-08-12T07:07:25.099Z,23.85
2022-08-12T07:10:10.254Z,23.68
2022-08-12T07:12:55.246Z,23.63
2022-08-12T07:15:43.840Z,24.00
2022-08-12T07:18:35.379Z,24.21
2022-08-12T07:21:20.877Z,24.11
2022-08-12T07:24:06.222Z,24.37
2022-08-12T07:26:54.887Z,24.30
2022-08-12T07:30:04.011Z,24.54
2022-08-12T07:32:49.626Z,24.73
2022-08-12T07:35:45.362Z,24.92
2022-08-12T07:38:40.082Z,24.78
2022-08-12T07:41:30.238Z,24.77
2022-08-12T07:44:15.732Z,24.76
2022-08-12T07:47:01.072Z,24.99
2022-08-12T07:50:05.633Z,24.88
2022-08-12T07:52:53.649Z,25.15
2022-08-12T07:55:39.362Z,24.92
2022-08-12T07:58:25.437Z,24.89
2022-08-12T08:01:15.477Z,24.89
2022-08-12T08:04:19.739Z,25.13
2022-08-12T08:07:09.370Z,25.27
2022-08-12T08:09:58.441Z,25.30
2022-08-12T08:12:53.657Z,25.46
2022-08-12T08:18:45.519Z,25.39
2022-08-12T08:21:35.208Z,25.54
2022-08-12T08:24:24.454Z,25.44
2022-08-12T08:27:11.985Z,25.60
2022-08-12T08:29:57.831Z,25.57
2022-08-12T08:32:43.096Z,25.70
2022-08-12T08:35:46.456Z,25.51
2022-08-12T08:38:34.909Z,25.48
2022-08-12T08:42:15.896Z,25.55
2022-08-12T08:44:45.503Z,25.70
2022-08-12T08:47:30.995Z,25.97
2022-08-12T08:50:16.250Z,26.02
2022-08-12T08:53:01.414Z,26.03
2022-08-12T08:56:04.065Z,26.14
2022-08-12T08:58:50.159Z,25.96
2022-08-12T09:01:38.592Z,26.13
2022-08-12T09:05:13.341Z,26.24
2022-08-12T09:07:51.682Z,25.86
2022-08-12T09:10:35.067Z,25.98
2022-08-12T09:19:45.719Z,26.59
2022-08-12T09:22:39.694Z,26.68
2022-08-12T09:25:33.342Z,26.60
2022-08-12T09:28:21.110Z,26.67
2022-08-12T09:32:02.778Z,26.85
2022-08-12T09:34:26.692Z,26.72
2022-08-12T09:37:19.950Z,26.88
2022-08-12T09:40:57.166Z,26.71
2022-08-12T09:43:35.002Z,26.80
2022-08-12T09:46:22.370Z,26.74
2022-08-12T09:49:16.249Z,26.83
2022-08-12T09:52:01.842Z,26.77
2022-08-12T09:54:48.468Z,26.78
2022-08-12T09:58:46.097Z,27.08
2022-08-12T10:00:51.885Z,26.94
2022-08-12T10:04:03.201Z,26.73
2022-08-12T10:06:55.330Z,26.65
2022-08-12T10:09:58.807Z,26.94
2022-08-12T10:13:08.123Z,26.69
2022-08-12T10:16:02.622Z,26.75
2022-08-12T10:19:01.945Z,26.83
2022-08-12T10:21:47.462Z,26.97
2022-08-12T10:24:42.653Z,27.13
2022-08-12T10:28:05.305Z,26.74
2022-08-12T10:30:59.021Z,27.01
2022-08-12T10:34:04.998Z,27.04
2022-08-12T10:36:55.028Z,26.88
2022-08-12T10:40:02.054Z,27.18
2022-08-12T10:43:04.927Z,27.11
2022-08-12T10:45:57.233Z,27.42
2022-08-12T10:48:47.405Z,27.50
2022-08-12T10:52:03.443Z,27.48
2022-08-12T10:54:50.906Z,27.23
2022-08-12T10:58:12.995Z,27.01
2022-08-12T11:00:54.899Z,26.92
2022-08-12T11:04:35.392Z,27.03
2022-08-12T11:07:05.004Z,27.19
2022-08-12T11:10:01.770Z,27.35
2022-08-12T11:12:59.499Z,27.27
2022-08-12T11:16:03.267Z,27.44
2022-08-12T11:18:55.408Z,27.39
2022-08-12T11:21:57.826Z,27.06
2022-08-12T11:24:51.667Z,27.25
2022-08-12T11:27:37.000Z,27.26
2022-08-12T11:30:31.001Z,27.32
2022-08-12T11:33:52.620Z,27.08
2022-08-12T11:36:22.580Z,27.26
2022-08-12T11:39:07.825Z,27.11
2022-08-12T11:41:57.676Z,27.18
2022-08-12T11:44:48.438Z,27.11
2022-08-12T11:47:33.520Z,27.11
2022-08-12T11:50:20.484Z,26.84
2022-08-12T11:53:05.546Z,26.91
2022-08-12T11:56:11.494Z,27.11
2022-08-12T12:02:05.256Z,27.31
2022-08-12T12:04:52.762Z,27.14
2022-08-12T12:08:38.332Z,27.47
2022-08-12T12:10:45.457Z,27.58
2022-08-12T12:14:08.891Z,27.73
2022-08-12T12:16:38.292Z,27.94
2022-08-12T12:19:25.212Z,27.89
2022-08-12T12:22:30.765Z,27.91
2022-08-12T12:25:16.687Z,27.70
2022-08-12T12:28:06.187Z,27.71
2022-08-12T12:30:54.951Z,27.88
2022-08-12T12:33:57.072Z,27.92
2022-08-12T12:36:47.641Z,27.98
2022-08-12T12:39:54.791Z,27.81
2022-08-12T12:42:45.618Z,27.70
2022-08-12T12:45:44.569Z,27.72
2022-08-12T12:48:31.438Z,27.64
2022-08-12T12:51:49.370Z,27.62
2022-08-12T12:54:28.980Z,27.59
2022-08-12T12:57:14.632Z,27.54
2022-08-12T13:00:17.930Z,27.57
2022-08-12T13:03:03.150Z,27.48
2022-08-12T13:05:53.609Z,27.39
2022-08-12T13:08:39.680Z,27.35
2022-08-12T13:11:41.144Z,27.37
2022-08-12T13:14:28.708Z,27.44
2022-08-12T13:17:19.882Z,27.52
2022-08-12T13:20:05.662Z,27.52
2022-08-12T13:22:53.390Z,27.40
2022-08-12T13:25:42.005Z,27.39
2022-08-12T13:28:29.371Z,27.37
2022-08-12T13:31:17.767Z,27.44
2022-08-12T13:34:32.626Z,27.60
2022-08-12T13:37:10.343Z,27.87
2022-08-12T13:39:55.874Z,27.85
2022-08-12T13:42:41.132Z,27.75
2022-08-12T13:45:30.951Z,27.74
2022-08-12T13:48:19.871Z,27.70
2022-08-12T13:51:05.506Z,27.59
2022-08-12T13:53:58.947Z,27.53
2022-08-12T13:56:49.956Z,27.50
2022-08-12T13:59:48.228Z,27.58
2022-08-12T14:02:40.017Z,27.49
2022-08-12T14:05:30.966Z,27.53
2022-08-12T14:08:23.759Z,27.51
2022-08-12T14:11:13.151Z,27.52
2022-08-12T14:14:03.404Z,27.51
2022-08-12T14:16:58.257Z,27.48
2022-08-12T14:20:03.244Z,27.54
2022-08-12T14:22:49.617Z,27.63
2022-08-12T14:25:40.853Z,27.61
2022-08-12T14:28:28.779Z,27.53
2022-08-12T14:31:18.107Z,27.72
2022-08-12T14:34:05.096Z,27.78
2022-08-12T14:36:50.315Z,27.77
2022-08-12T14:39:35.942Z,27.90
2022-08-12T14:42:26.020Z,27.93
2022-08-12T14:45:11.435Z,28.11
2022-08-12T14:47:58.993Z,27.73
2022-08-12T14:51:03.139Z,27.80
2022-08-12T14:55:18.251Z,27.87
2022-08-12T14:57:24.021Z,27.87
2022-08-12T15:00:23.289Z,27.88
2022-08-12T15:03:13.551Z,27.87
2022-08-12T15:06:38.807Z,28.11
2022-08-12T15:09:09.312Z,28.05
2022-08-12T15:12:03.381Z,28.17
2022-08-12T15:14:49.409Z,28.20
2022-08-12T15:17:37.780Z,28.16
2022-08-12T15:20:37.724Z,28.01
2022-08-12T15:23:33.001Z,28.11
2022-08-12T15:26:37.796Z,28.01
2022-08-12T15:29:26.565Z,28.20
2022-08-12T15:32:16.162Z,28.11
2022-08-12T15:35:01.541Z,28.01
2022-08-12T15:38:09.179Z,28.02
2022-08-12T15:40:59.147Z,27.88
2022-08-12T15:44:16.178Z,27.88
2022-08-12T15:46:50.127Z,27.91
2022-08-12T15:49:54.417Z,27.66
2022-08-12T15:52:43.144Z,27.67
2022-08-12T15:55:33.709Z,27.78
2022-08-12T15:58:19.169Z,27.85
2022-08-12T16:01:17.433Z,27.94
2022-08-12T16:04:03.143Z,27.93
2022-08-12T16:07:05.560Z,27.90
2022-08-12T16:09:56.345Z,27.79
2022-08-12T16:12:55.362Z,27.89
2022-08-12T16:15:42.281Z,27.73
2022-08-12T16:18:38.208Z,27.50
2022-08-12T16:21:52.718Z,27.55
2022-08-12T16:24:30.189Z,27.47
2022-08-12T16:27:17.724Z,27.46
2022-08-12T16:30:04.330Z,27.26
2022-08-12T16:32:53.809Z,27.31
2022-08-12T16:35:41.010Z,27.45
2022-08-12T16:38:29.034Z,27.32
2022-08-12T16:41:14.546Z,27.21
2022-08-12T16:44:00.876Z,27.21
2022-08-12T16:46:58.147Z,27.21
2022-08-12T16:49:43.817Z,27.06
2022-08-12T16:52:29.193Z,26.96
2022-08-12T16:55:15.100Z,27.01
2022-08-12T16:58:01.652Z,27.01
2022-08-12T17:00:49.231Z,26.90
2022-08-12T17:03:36.905Z,26.90
2022-08-12T17:06:27.341Z,26.85
2022-08-12T17:09:17.826Z,26.85
2022-08-12T17:12:04.445Z,26.86
2022-08-12T17:14:53.097Z,26.78
2022-08-12T17:17:40.193Z,26.61
2022-08-12T17:20:35.094Z,26.54
2022-08-12T17:23:27.491Z,26.54
2022-08-12T17:26:33.847Z,26.45
2022-08-12T17:29:32.173Z,26.52
2022-08-12T17:32:30.579Z,26.58
2022-08-12T17:35:36.705Z,26.60
2022-08-12T17:38:23.050Z,26.70
2022-08-12T17:41:22.942Z,26.71
2022-08-12T17:45:01.573Z,26.65
2022-08-12T17:48:01.818Z,26.60
2022-08-12T17:50:50.727Z,26.60
2022-08-12T17:54:05.784Z,26.62
2022-08-12T17:56:42.962Z,26.61
2022-08-12T17:59:48.991Z,26.55
2022-08-12T18:02:35.432Z,26.59
2022-08-12T18:05:23.021Z,26.61
2022-08-12T18:08:12.586Z,26.54
2022-08-12T18:11:38.342Z,26.58
2022-08-12T18:14:28.111Z,26.53
2022-08-12T18:17:16.186Z,26.46
2022-08-12T18:20:07.894Z,26.44
2022-08-12T18:22:55.886Z,26.38
2022-08-12T18:26:14.728Z,26.37
2022-08-12T18:29:02.808Z,26.33
2022-08-12T18:32:00.051Z,26.35
2022-08-12T18:34:58.307Z,26.37
2022-08-12T18:37:57.171Z,26.32
2022-08-12T18:41:03.210Z,26.31
2022-08-12T18:43:59.281Z,26.27
2022-08-12T18:46:58.730Z,26.24
2022-08-12T18:49:47.427Z,26.17
2022-08-12T18:52:36.565Z,26.12
2022-08-12T18:55:26.977Z,26.07
2022-08-12T18:58:24.028Z,26.02
2022-08-12T19:02:19.178Z,25.99
2022-08-12T19:04:26.319Z,25.94
2022-08-12T19:07:58.124Z,25.89
2022-08-12T19:10:50.098Z,25.86
2022-08-12T19:13:54.727Z,25.84
2022-08-12T19:16:40.183Z,25.81
2022-08-12T19:19:25.412Z,25.81
2022-08-12T19:22:10.617Z,25.80
2022-08-12T19:25:15.272Z,25.77
2022-08-12T19:28:03.396Z,25.73
2022-08-12T19:31:08.871Z,25.69
2022-08-12T19:34:21.952Z,25.64
2022-08-12T19:37:04.189Z,25.62
2022-08-12T19:40:09.104Z,25.57
2022-08-12T19:43:01.782Z,25.55
2022-08-12T19:45:54.295Z,25.52
2022-08-12T19:48:46.016Z,25.53
2022-08-12T19:51:49.589Z,25.61
2022-08-12T19:54:35.269Z,25.57
2022-08-12T19:57:22.469Z,25.58
2022-08-12T20:00:17.197Z,25.56
2022-08-12T20:03:04.831Z,25.58
2022-08-12T20:06:05.526Z,25.53
2022-08-12T20:08:56.461Z,25.47
2022-08-12T20:12:13.705Z,25.41
2022-08-12T20:14:52.336Z,25.37
2022-08-12T20:17:50.738Z,25.33
2022-08-12T20:20:38.256Z,25.28
2022-08-12T20:23:37.205Z,25.23
2022-08-12T20:26:33.522Z,25.20
2022-08-12T20:29:20.282Z,25.16
2022-08-12T20:32:09.462Z,25.13
2022-08-12T20:34:55.255Z,25.10
2022-08-12T20:38:07.296Z,25.07
2022-08-12T20:40:47.953Z,25.02
2022-08-12T20:43:35.685Z,24.97
2022-08-12T20:46:31.524Z,24.93
2022-08-12T20:49:17.551Z,24.92
2022-08-12T20:52:03.546Z,24.88
2022-08-12T20:54:51.588Z,24.82
2022-08-12T20:57:38.033Z,24.76
2022-08-12T21:00:28.107Z,24.70
2022-08-12T21:03:32.556Z,24.66
2022-08-12T21:06:36.308Z,24.62
2022-08-12T21:09:23.165Z,24.56
2022-08-12T21:12:31.379Z,24.53
2022-08-12T21:15:23.944Z,24.50
2022-08-12T21:18:29.086Z,24.53
2022-08-12T21:21:23.625Z,24.56
2022-08-12T21:24:10.919Z,24.52
2022-08-12T21:26:59.940Z,24.50
2022-08-12T21:29:55.174Z,24.48
2022-08-12T21:32:43.344Z,24.46
2022-08-12T21:35:35.993Z,24.44
2022-08-12T21:38:26.342Z,24.45
2022-08-12T21:41:20.372Z,24.40
2022-08-12T21:44:24.136Z,24.40
2022-08-12T21:47:20.852Z,24.38
2022-08-12T21:50:08.160Z,24.32
2022-08-12T21:52:54.493Z,24.23
2022-08-12T21:55:44.009Z,24.19
2022-08-12T21:58:29.287Z,24.12
2022-08-12T22:01:20.009Z,24.02
2022-08-12T22:04:27.412Z,23.85
2022-08-12T22:07:13.380Z,23.77
2022-08-12T22:10:04.629Z,23.71
2022-08-12T22:12:49.843Z,23.69
2022-08-12T22:15:35.177Z,23.67
2022-08-12T22:18:24.354Z,23.68
2022-08-12T22:21:15.238Z,23.67
2022-08-12T22:24:05.812Z,23.70
2022-08-12T22:26:51.403Z,23.72
2022-08-12T22:29:55.496Z,23.70
2022-08-12T22:33:01.245Z,23.72
2022-08-12T22:35:58.769Z,23.73
2022-08-12T22:38:46.565Z,23.72
2022-08-12T22:41:56.934Z,23.72
2022-08-12T22:45:01.858Z,23.67
2022-08-12T22:47:55.225Z,23.65
2022-08-12T22:50:41.365Z,23.64
2022-08-12T22:53:36.231Z,23.63
2022-08-12T22:56:31.377Z,23.60
2022-08-12T22:59:17.017Z,23.54
2022-08-12T23:02:07.666Z,23.57
2022-08-12T23:04:57.687Z,23.52
2022-08-12T23:07:58.657Z,23.45
2022-08-12T23:10:46.956Z,23.38
2022-08-12T23:13:55.525Z,23.28
2022-08-12T23:16:46.476Z,23.18
2022-08-12T23:19:38.434Z,22.96
2022-08-12T23:22:36.326Z,22.82
2022-08-12T23:25:55.393Z,22.56
2022-08-12T23:28:59.812Z,22.50
2022-08-12T23:32:02.616Z,22.24
2022-08-12T23:34:50.496Z,22.19
2022-08-12T23:37:47.716Z,22.15
2022-08-12T23:40:39.446Z,22.06
2022-08-12T23:43:25.680Z,22.03
2022-08-12T23:46:18.559Z,21.91
2022-08-12T23:49:13.799Z,21.84
2022-08-12T23:52:12.291Z,21.78
2022-08-12T23:54:58.477Z,21.80
2022-08-12T23:58:18.598Z,21.81
